createdAt,value
2022-11-19T00:04:48.177Z,8.74
2022-11-19T00:11:11.188Z,8.72
2022-11-19T00:17:31.164Z,8.65
2022-11-19T00:23:54.254Z,8.58
2022-11-19T00:30:26.043Z,8.58
2022-11-19T00:36:37.240Z,8.57
2022-11-19T00:42:57.197Z,8.56
2022-11-19T00:49:20.402Z,8.55
2022-11-19T00:55:40.242Z,8.55
2022-11-19T01:02:03.192Z,8.57
2022-11-19T01:08:23.207Z,8.59
2022-11-19T01:14:46.251Z,8.61
2022-11-19T01:21:06.183Z,8.63
2022-11-19T01:27:29.178Z,8.63
2022-11-19T01:33:49.215Z,8.62
2022-11-19T01:40:12.167Z,8.59
2022-11-19T01:46:32.162Z,8.55
2022-11-19T01:52:55.204Z,8.52
2022-11-19T01:59:15.150Z,8.52
2022-11-19T02:05:38.197Z,8.56
2022-11-19T02:11:58.186Z,8.56
2022-11-19T02:18:21.180Z,8.56
2022-11-19T02:24:41.176Z,8.52
2022-11-19T02:31:04.211Z,8.52
2022-11-19T02:37:24.156Z,8.55
2022-11-19T02:43:47.220Z,8.6
2022-11-19T02:50:07.313Z,8.64
2022-11-19T02:56:30.149Z,8.64
2022-11-19T03:02:50.206Z,8.56
2022-11-19T03:09:13.175Z,8.49
2022-11-19T03:15:33.179Z,8.32
2022-11-19T03:21:56.160Z,8.06
2022-11-19T03:28:16.216Z,7.8
2022-11-19T03:34:39.217Z,7.46
2022-11-19T03:40:59.218Z,7.12
2022-11-19T03:47:22.213Z,6.9
2022-11-19T03:53:42.147Z,6.74
2022-11-19T04:00:05.180Z,6.53
2022-11-19T04:06:25.225Z,6.38
2022-11-19T04:12:48.222Z,6.18
2022-11-19T04:19:08.215Z,5.97
2022-11-19T04:42:15.221Z,5.54
2022-11-19T04:48:38.141Z,5.47
2022-11-19T04:54:58.175Z,5.34
2022-11-19T05:01:21.223Z,5.2
2022-11-19T05:07:41.238Z,5.07
2022-11-19T05:14:04.239Z,4.97
2022-11-19T05:20:24.345Z,4.79
2022-11-19T05:26:47.219Z,4.63
2022-11-19T05:33:07.173Z,4.55
2022-11-19T05:39:30.319Z,4.49
2022-11-19T05:45:50.268Z,4.41
2022-11-19T05:52:13.199Z,4.38
2022-11-19T05:58:33.341Z,4.36
2022-11-19T06:04:56.203Z,4.38
2022-11-19T06:11:16.295Z,4.35
2022-11-19T06:17:39.215Z,4.3
2022-11-19T06:23:59.170Z,4.27
2022-11-19T06:30:22.217Z,4.26
2022-11-19T06:36:46.312Z,4.2
2022-11-19T06:43:05.285Z,4.16
2022-11-19T06:49:25.627Z,4.14
2022-11-19T06:55:48.250Z,4.13
2022-11-19T07:02:08.320Z,4.12
2022-11-19T07:08:31.170Z,4.04
2022-11-19T07:14:51.302Z,4
2022-11-19T07:21:14.165Z,4.03
2022-11-19T07:27:34.159Z,4.08
2022-11-19T07:33:57.297Z,4.07
2022-11-19T07:40:17.197Z,4.1
2022-11-19T07:46:40.190Z,4.11
2022-11-19T07:53:00.213Z,4.11
2022-11-19T07:59:23.320Z,4.13
2022-11-19T08:05:43.231Z,4.16
2022-11-19T08:12:06.191Z,4.22
2022-11-19T08:18:30.983Z,4.25
2022-11-19T08:24:49.213Z,4.25
2022-11-19T08:31:09.234Z,4.26
2022-11-19T08:37:32.370Z,4.26
2022-11-19T08:43:52.222Z,4.27
2022-11-19T08:50:15.337Z,4.38
2022-11-19T08:56:35.192Z,4.46
2022-11-19T09:02:58.271Z,4.51
2022-11-19T09:09:18.316Z,4.55
2022-11-19T09:15:41.276Z,4.6
2022-11-19T09:39:40.113Z,4.7
2022-11-19T09:46:00.148Z,4.77
2022-11-19T09:52:23.147Z,4.84
2022-11-19T09:58:43.212Z,4.84
2022-11-19T10:05:06.170Z,4.86
2022-11-19T10:11:26.216Z,4.85
2022-11-19T10:17:49.256Z,4.81
2022-11-19T10:24:09.173Z,4.85
2022-11-19T10:30:32.189Z,4.88
2022-11-19T10:36:52.196Z,4.89
2022-11-19T10:43:17.125Z,4.92
2022-11-19T10:49:35.140Z,4.91
2022-11-19T10:55:58.295Z,4.9
2022-11-19T11:02:18.183Z,4.88
2022-11-19T11:08:41.214Z,4.88
2022-11-19T11:15:01.333Z,4.91
2022-11-19T11:21:24.212Z,4.92
2022-11-19T11:27:44.236Z,4.94
2022-11-19T11:34:07.224Z,4.99
2022-11-19T11:40:27.176Z,4.94
2022-11-19T11:46:50.185Z,4.94
2022-11-19T11:53:10.250Z,4.98
2022-11-19T11:59:33.197Z,5.08
2022-11-19T12:05:53.229Z,5.17
2022-11-19T12:12:16.213Z,5.2
2022-11-19T12:18:36.193Z,5.21
2022-11-19T12:24:59.185Z,5.27
2022-11-19T12:31:19.282Z,5.36
2022-11-19T12:37:42.250Z,5.3
2022-11-19T12:44:02.191Z,5.26
2022-11-19T12:50:25.326Z,5.25
2022-11-19T12:56:45.199Z,5.21
2022-11-19T13:03:08.166Z,5.25
2022-11-19T13:09:28.261Z,5.36
2022-11-19T13:15:51.182Z,5.35
2022-11-19T13:22:11.278Z,5.33
2022-11-19T13:28:34.219Z,5.29
2022-11-19T13:34:54.184Z,5.22
2022-11-19T13:41:17.245Z,5.17
2022-11-19T13:47:37.216Z,5.16
2022-11-19T13:54:03.203Z,5.13
2022-11-19T14:00:20.171Z,5.18
2022-11-19T14:06:43.208Z,5.25
2022-11-19T14:13:03.223Z,5.24
2022-11-19T14:19:26.176Z,5.19
2022-11-19T14:25:46.211Z,5.13
2022-11-19T14:32:09.213Z,5.1
2022-11-19T14:47:59.100Z,4.92
2022-11-19T14:54:19.579Z,4.84
2022-11-19T15:00:42.158Z,4.84
2022-11-19T15:07:02.257Z,4.85
2022-11-19T15:13:25.146Z,4.88
2022-11-19T15:19:45.248Z,4.84
2022-11-19T15:26:08.274Z,4.77
2022-11-19T15:32:28.160Z,4.69
2022-11-19T15:38:51.182Z,4.71
2022-11-19T15:45:11.219Z,4.71
2022-11-19T15:51:34.160Z,4.7
2022-11-19T15:57:56.410Z,4.66
2022-11-19T16:04:17.269Z,4.62
2022-11-19T16:10:37.288Z,4.61
2022-11-19T16:17:00.159Z,4.58
2022-11-19T16:23:20.237Z,4.53
2022-11-19T16:29:43.188Z,4.5
2022-11-19T16:36:03.209Z,4.51
2022-11-19T16:42:26.247Z,4.51
2022-11-19T16:48:46.207Z,4.47
2022-11-19T16:55:09.206Z,4.48
2022-11-19T17:01:29.929Z,4.49
2022-11-19T17:07:52.196Z,4.5
2022-11-19T17:14:12.252Z,4.52
2022-11-19T17:20:35.227Z,4.51
2022-11-19T17:26:55.232Z,4.45
2022-11-19T17:33:18.221Z,4.45
2022-11-19T17:39:38.364Z,4.38
2022-11-19T17:46:01.198Z,4.35
2022-11-19T17:52:21.572Z,4.39
2022-11-19T17:58:44.391Z,4.38
2022-11-19T18:05:04.178Z,4.4
2022-11-19T18:11:27.188Z,4.42
2022-11-19T18:17:47.261Z,4.38
2022-11-19T18:24:10.165Z,4.36
2022-11-19T18:30:30.233Z,4.37
2022-11-19T18:36:53.475Z,4.41
2022-11-19T18:43:13.194Z,4.39
2022-11-19T18:49:36.227Z,4.27
2022-11-19T18:55:56.317Z,4.19
2022-11-19T19:02:19.246Z,4.16
2022-11-19T19:08:39.249Z,4.19
2022-11-19T19:15:02.338Z,4.09
2022-11-19T19:21:22.180Z,4.01
2022-11-19T19:27:45.248Z,3.96
2022-11-19T19:34:05.396Z,3.97
2022-11-19T19:49:39.599Z,4.04
2022-11-19T19:55:59.179Z,4.04
2022-11-19T20:02:22.198Z,3.98
2022-11-19T20:08:42.226Z,3.9
2022-11-19T20:15:05.256Z,3.86
2022-11-19T20:21:25.263Z,3.88
2022-11-19T20:27:48.220Z,3.89
2022-11-19T20:34:08.151Z,3.85
2022-11-19T20:40:31.241Z,3.78
2022-11-19T20:46:51.255Z,3.72
2022-11-19T20:53:14.188Z,3.68
2022-11-19T20:59:34.409Z,3.67
2022-11-19T21:05:57.238Z,3.72
2022-11-19T21:12:17.185Z,3.78
2022-11-19T21:18:40.140Z,3.72
2022-11-19T21:25:00.263Z,3.67
2022-11-19T21:31:23.202Z,3.7
2022-11-19T21:37:43.210Z,3.68
2022-11-19T21:44:06.234Z,3.61
2022-11-19T21:50:26.208Z,3.56
2022-11-19T21:56:49.343Z,3.57
2022-11-19T22:03:09.213Z,3.63
2022-11-19T22:09:32.160Z,3.67
2022-11-19T22:15:52.224Z,3.65
2022-11-19T22:22:15.246Z,3.72
2022-11-19T22:28:35.269Z,3.72
2022-11-19T22:34:58.211Z,3.73
2022-11-19T22:41:18.253Z,3.75
2022-11-19T22:47:41.193Z,3.72
2022-11-19T22:54:01.175Z,3.79
2022-11-19T23:00:24.241Z,3.82
2022-11-19T23:23:21.186Z,3.65
2022-11-19T23:29:41.159Z,3.63
2022-11-19T23:36:04.207Z,3.64
2022-11-19T23:42:24.216Z,3.65
2022-11-19T23:48:47.225Z,3.64
2022-11-19T23:55:07.223Z,3.67
